createdAt,value
2018-04-22T00:00:01.000Z,0.00
2018-04-22T00:01:01.243Z,0.00
2018-04-22T00:02:01.484Z,0.00
2018-04-22T00:03:01.727Z,0.00
2018-04-22T00:04:01.970Z,0.00
2018-04-22T00:05:02.214Z,0.00
2018-04-22T00:06:02.457Z,0.00
2018-04-22T00:07:02.699Z,0.00
2018-04-22T00:08:02.940Z,0.00
2018-04-22T00:09:03.184Z,0.00
2018-04-22T00:10:03.432Z,0.00
2018-04-22T00:11:03.671Z,0.00
2018-04-22T00:12:03.913Z,0.00
2018-04-22T00:13:04.156Z,0.00
2018-04-22T00:14:04.399Z,0.00
2018-04-22T00:15:04.640Z,0.00
2018-04-22T00:16:04.886Z,0.00
2018-04-22T00:17:05.128Z,0.00
2018-04-22T00:18:05.372Z,0.00
2018-04-22T00:19:05.614Z,0.00
2018-04-22T00:20:05.858Z,0.00
2018-04-22T00:21:06.101Z,0.00
2018-04-22T00:22:06.345Z,0.00
2018-04-22T00:23:06.589Z,0.00
2018-04-22T00:24:06.830Z,0.00
2018-04-22T00:25:07.071Z,0.00
2018-04-22T00:26:07.314Z,0.00
2018-04-22T00:27:07.554Z,0.00
2018-04-22T00:28:07.797Z,0.00
2018-04-22T00:29:08.037Z,0.00
2018-04-22T00:30:08.284Z,0.00
2018-04-22T00:31:08.521Z,0.00
2018-04-22T00:32:08.765Z,0.00
2018-04-22T00:33:09.005Z,0.00
2018-04-22T00:34:09.249Z,0.00
2018-04-22T00:35:09.492Z,0.00
2018-04-22T00:36:09.736Z,0.00
2018-04-22T00:37:09.977Z,0.00
2018-04-22T00:38:10.223Z,0.00
2018-04-22T00:39:10.466Z,0.00
2018-04-22T00:40:10.709Z,0.00
2018-04-22T00:41:10.951Z,0.00
2018-04-22T00:42:11.193Z,0.00
2018-04-22T00:43:11.434Z,0.00
2018-04-22T00:44:11.674Z,0.00
2018-04-22T00:45:11.913Z,0.00
2018-04-22T00:46:12.163Z,0.00
2018-04-22T00:47:12.405Z,0.00
2018-04-22T00:48:12.648Z,0.00
2018-04-22T00:49:12.890Z,0.00
2018-04-22T00:50:13.133Z,0.00
2018-04-22T00:51:13.376Z,0.00
2018-04-22T00:52:13.616Z,0.00
2018-04-22T00:53:13.860Z,0.00
2018-04-22T00:54:14.103Z,0.00
2018-04-22T00:55:14.345Z,0.00
2018-04-22T00:56:14.588Z,0.00
2018-04-22T00:57:14.831Z,0.00
2018-04-22T00:58:15.070Z,0.00
2018-04-22T00:59:15.313Z,0.00
2018-04-22T01:00:15.555Z,0.00
2018-04-22T01:01:15.797Z,0.00
2018-04-22T01:02:16.042Z,0.00
2018-04-22T01:03:16.282Z,0.00
2018-04-22T01:04:16.527Z,0.00
2018-04-22T01:05:16.769Z,0.00
2018-04-22T01:06:17.012Z,0.00
2018-04-22T01:07:17.253Z,0.00
2018-04-22T01:08:17.502Z,0.00
2018-04-22T01:09:17.745Z,0.00
2018-04-22T01:10:17.982Z,0.00
2018-04-22T01:11:18.223Z,0.00
2018-04-22T01:12:18.468Z,0.00
2018-04-22T01:13:18.709Z,0.00
2018-04-22T01:14:18.950Z,0.00
2018-04-22T01:15:19.221Z,0.00
2018-04-22T01:16:19.438Z,0.00
2018-04-22T01:17:19.687Z,0.00
2018-04-22T01:18:19.923Z,0.00
2018-04-22T01:19:20.168Z,0.00
2018-04-22T01:20:20.413Z,0.00
2018-04-22T01:21:20.656Z,0.00
2018-04-22T01:22:20.897Z,0.00
2018-04-22T01:23:21.139Z,0.00
2018-04-22T01:24:21.381Z,0.00
2018-04-22T01:25:21.631Z,0.00
2018-04-22T01:26:21.868Z,0.00
2018-04-22T01:27:22.108Z,0.00
2018-04-22T01:28:22.351Z,0.00
2018-04-22T01:29:22.593Z,0.00
2018-04-22T01:30:22.834Z,0.00
2018-04-22T01:31:23.079Z,0.00
2018-04-22T01:32:23.321Z,0.00
2018-04-22T01:33:23.561Z,0.00
2018-04-22T01:34:23.802Z,0.00
2018-04-22T01:35:24.043Z,0.00
2018-04-22T01:36:24.288Z,0.00
2018-04-22T01:37:24.528Z,0.00
2018-04-22T01:38:24.772Z,0.00
2018-04-22T01:39:25.015Z,0.00
2018-04-22T01:40:25.255Z,0.00
2018-04-22T01:41:25.497Z,0.00
2018-04-22T01:42:25.740Z,0.00
2018-04-22T01:43:25.982Z,0.00
2018-04-22T01:44:26.224Z,0.00
2018-04-22T01:45:26.464Z,0.00
2018-04-22T01:46:26.706Z,0.00
2018-04-22T01:47:26.947Z,0.00
2018-04-22T01:48:27.229Z,0.00
2018-04-22T01:49:27.432Z,0.00
2018-04-22T01:50:27.675Z,0.00
2018-04-22T01:51:27.915Z,0.00
2018-04-22T01:52:28.156Z,0.00
2018-04-22T01:53:28.401Z,0.00
2018-04-22T01:54:28.641Z,0.00
2018-04-22T01:55:28.881Z,0.00
2018-04-22T01:56:29.124Z,0.00
2018-04-22T01:57:29.366Z,0.00
2018-04-22T01:58:29.607Z,0.00
2018-04-22T01:59:29.849Z,0.00
2018-04-22T02:00:30.090Z,0.00
2018-04-22T02:01:30.332Z,0.00
2018-04-22T02:02:30.574Z,0.00
2018-04-22T02:03:30.817Z,0.00
2018-04-22T02:04:31.059Z,0.00
2018-04-22T02:05:31.307Z,0.00
2018-04-22T02:06:31.540Z,0.00
2018-04-22T02:07:31.784Z,0.00
2018-04-22T02:08:32.025Z,0.00
2018-04-22T02:09:32.266Z,0.00
2018-04-22T02:10:32.506Z,0.00
2018-04-22T02:11:32.753Z,0.00
2018-04-22T02:12:32.992Z,0.00
2018-04-22T02:13:33.235Z,0.00
2018-04-22T02:14:33.474Z,0.00
2018-04-22T02:15:33.717Z,0.00
2018-04-22T02:16:33.958Z,0.00
2018-04-22T02:17:34.200Z,0.00
2018-04-22T02:18:34.438Z,0.00
2018-04-22T02:19:34.685Z,0.00
2018-04-22T02:20:34.921Z,0.00
2018-04-22T02:21:35.165Z,0.00
2018-04-22T02:22:35.409Z,0.00
2018-04-22T02:23:35.648Z,0.00
2018-04-22T02:24:35.891Z,0.00
2018-04-22T02:25:36.135Z,0.00
2018-04-22T02:26:36.375Z,0.00
2018-04-22T02:27:36.617Z,0.00
2018-04-22T02:28:36.862Z,0.00
2018-04-22T02:29:37.101Z,0.00
2018-04-22T02:30:37.344Z,0.00
2018-04-22T02:31:37.585Z,0.00
2018-04-22T02:32:37.829Z,0.00
2018-04-22T02:33:38.074Z,0.00
2018-04-22T02:34:38.322Z,0.00
2018-04-22T02:35:38.556Z,0.00
2018-04-22T02:36:38.798Z,0.00
2018-04-22T02:37:39.038Z,0.00
2018-04-22T02:38:39.281Z,0.00
2018-04-22T02:39:39.520Z,0.00
2018-04-22T02:40:39.763Z,0.00
2018-04-22T02:41:40.000Z,0.00
2018-04-22T02:42:40.257Z,0.00
2018-04-22T02:43:40.484Z,0.00
2018-04-22T02:44:40.727Z,0.00
2018-04-22T02:45:40.970Z,0.00
2018-04-22T02:46:41.212Z,0.00
2018-04-22T02:47:41.455Z,0.00
2018-04-22T02:48:41.713Z,0.00
2018-04-22T02:49:41.940Z,0.00
2018-04-22T02:50:42.179Z,0.00
2018-04-22T02:51:42.420Z,0.00
2018-04-22T02:52:42.663Z,0.00
2018-04-22T02:53:42.917Z,0.00
2018-04-22T02:54:43.146Z,0.00
2018-04-22T02:55:43.379Z,0.00
2018-04-22T02:56:43.619Z,0.00
2018-04-22T02:57:43.865Z,0.00
2018-04-22T02:58:44.101Z,0.00
2018-04-22T02:59:44.346Z,0.00
2018-04-22T03:00:44.588Z,0.00
2018-04-22T03:01:44.827Z,0.00
2018-04-22T03:02:45.065Z,0.00
2018-04-22T03:03:45.311Z,0.00
2018-04-22T03:04:45.551Z,0.00
2018-04-22T03:05:45.791Z,0.00
2018-04-22T03:06:46.032Z,0.00
2018-04-22T03:07:46.280Z,0.00
2018-04-22T03:08:46.519Z,0.00
2018-04-22T03:09:46.758Z,0.00
2018-04-22T03:10:47.001Z,0.00
2018-04-22T03:11:47.242Z,0.00
2018-04-22T03:12:47.483Z,0.00
2018-04-22T03:13:47.723Z,0.00
2018-04-22T03:14:47.963Z,0.00
2018-04-22T03:15:48.205Z,0.00
2018-04-22T03:16:48.446Z,0.00
2018-04-22T03:17:48.688Z,0.00
2018-04-22T03:18:48.968Z,0.00
2018-04-22T03:19:49.170Z,0.00
2018-04-22T03:20:49.411Z,0.00
2018-04-22T03:21:49.651Z,0.00
2018-04-22T03:22:49.892Z,0.00
2018-04-22T03:23:50.134Z,0.00
2018-04-22T03:24:50.375Z,0.00
2018-04-22T03:25:50.615Z,0.00
2018-04-22T03:26:50.857Z,0.00
2018-04-22T03:27:51.098Z,0.00
2018-04-22T03:28:51.338Z,0.00
2018-04-22T03:29:51.581Z,0.00
2018-04-22T03:30:51.823Z,0.00
2018-04-22T03:31:52.083Z,0.00
2018-04-22T03:32:52.303Z,0.00
2018-04-22T03:33:52.547Z,0.00
2018-04-22T03:34:52.788Z,0.00
2018-04-22T03:35:53.028Z,0.00
2018-04-22T03:36:53.271Z,0.00
2018-04-22T03:37:53.511Z,0.00
2018-04-22T03:38:53.752Z,4.00
2018-04-22T03:39:53.994Z,4.00
2018-04-22T03:40:54.235Z,0.00
2018-04-22T03:41:54.476Z,4.00
2018-04-22T03:42:54.716Z,4.00
2018-04-22T03:43:54.959Z,4.00
2018-04-22T03:44:55.202Z,4.00
2018-04-22T03:45:55.443Z,4.00
2018-04-22T03:46:55.685Z,8.00
2018-04-22T03:47:55.926Z,8.00
2018-04-22T03:48:56.167Z,12.00
2018-04-22T03:49:56.406Z,12.00
2018-04-22T03:50:56.649Z,12.00
2018-04-22T03:51:56.891Z,16.00
2018-04-22T03:52:57.131Z,16.00
2018-04-22T03:53:57.372Z,24.00
2018-04-22T03:54:57.614Z,24.00
2018-04-22T03:55:57.856Z,32.00
2018-04-22T03:56:58.095Z,36.00
2018-04-22T03:57:58.338Z,40.00
2018-04-22T03:58:58.580Z,48.00
2018-04-22T03:59:58.823Z,56.00
2018-04-22T04:00:59.062Z,64.00
2018-04-22T04:01:59.305Z,72.00
2018-04-22T04:02:59.553Z,80.00
2018-04-22T04:03:59.792Z,92.00
2018-04-22T04:05:00.034Z,104.00
2018-04-22T04:06:00.275Z,116.00
2018-04-22T04:07:00.515Z,128.00
2018-04-22T04:08:00.755Z,144.00
2018-04-22T04:09:00.997Z,156.00
2018-04-22T04:10:01.240Z,172.00
2018-04-22T04:11:01.482Z,192.00
2018-04-22T04:12:01.723Z,212.00
2018-04-22T04:13:01.967Z,232.00
2018-04-22T04:14:02.207Z,252.00
2018-04-22T04:15:02.448Z,276.00
2018-04-22T04:16:02.695Z,304.00
2018-04-22T04:17:02.934Z,336.00
2018-04-22T04:18:03.173Z,368.00
2018-04-22T04:19:03.415Z,396.00
2018-04-22T04:20:03.655Z,436.00
2018-04-22T04:21:03.896Z,476.00
2018-04-22T04:22:04.137Z,516.00
2018-04-22T04:23:04.379Z,560.00
2018-04-22T04:24:04.620Z,604.00
2018-04-22T04:25:04.862Z,644.00
2018-04-22T04:26:05.105Z,688.00
2018-04-22T04:27:05.349Z,732.00
2018-04-22T04:28:05.592Z,780.00
2018-04-22T04:29:05.837Z,828.00
2018-04-22T04:30:06.074Z,876.00
2018-04-22T04:31:06.315Z,928.00
2018-04-22T04:32:06.557Z,976.00
2018-04-22T04:33:06.797Z,1024.00
2018-04-22T04:34:07.037Z,1072.00
2018-04-22T04:35:07.283Z,1124.00
2018-04-22T04:36:07.566Z,1176.00
2018-04-22T04:37:07.763Z,1228.00
2018-04-22T04:38:08.004Z,1280.00
2018-04-22T04:39:08.246Z,1336.00
2018-04-22T04:40:08.489Z,1388.00
2018-04-22T04:41:08.731Z,1444.00
2018-04-22T04:42:08.971Z,1504.00
2018-04-22T04:43:09.207Z,1560.00
2018-04-22T04:44:09.455Z,1620.00
2018-04-22T04:45:09.695Z,1684.00
2018-04-22T04:46:09.935Z,1748.00
2018-04-22T04:47:10.178Z,1804.00
2018-04-22T04:48:10.419Z,1872.00
2018-04-22T04:49:10.658Z,1936.00
2018-04-22T04:50:10.901Z,2008.00
2018-04-22T04:51:11.140Z,2080.00
2018-04-22T04:52:11.381Z,2156.00
2018-04-22T04:53:11.620Z,2232.00
2018-04-22T04:54:11.912Z,2296.00
2018-04-22T04:55:12.105Z,2364.00
2018-04-22T04:56:12.349Z,2436.00
2018-04-22T04:57:12.592Z,2508.00
2018-04-22T04:58:12.833Z,2580.00
2018-04-22T04:59:13.073Z,2652.00
2018-04-22T05:00:13.314Z,2720.00
2018-04-22T05:01:13.553Z,2796.00
2018-04-22T05:02:13.793Z,2872.00
2018-04-22T05:03:14.037Z,2944.00
2018-04-22T05:04:14.274Z,3016.00
2018-04-22T05:05:14.517Z,3080.00
2018-04-22T05:06:14.757Z,3144.00
2018-04-22T05:07:15.004Z,3216.00
2018-04-22T05:08:15.228Z,3288.00
2018-04-22T05:09:15.465Z,3368.00
2018-04-22T05:10:15.710Z,3444.00
2018-04-22T05:11:15.951Z,3532.00
2018-04-22T05:12:16.192Z,3620.00
2018-04-22T05:13:16.434Z,3700.00
2018-04-22T05:14:16.677Z,3776.00
2018-04-22T05:15:16.920Z,3856.00
2018-04-22T05:16:17.163Z,3908.00
2018-04-22T05:17:17.402Z,3988.00
2018-04-22T05:18:17.643Z,4068.00
2018-04-22T05:19:17.885Z,4140.00
2018-04-22T05:20:18.128Z,4212.00
2018-04-22T05:21:18.371Z,4292.00
2018-04-22T05:22:18.612Z,4372.00
2018-04-22T05:23:18.854Z,4464.00
2018-04-22T05:24:19.178Z,4556.00
2018-04-22T05:25:19.338Z,4652.00
2018-04-22T05:26:19.583Z,4740.00
2018-04-22T05:27:19.821Z,4844.00
2018-04-22T05:28:20.063Z,4940.00
2018-04-22T05:29:20.308Z,5048.00
2018-04-22T05:30:20.545Z,5148.00
2018-04-22T05:31:20.795Z,5240.00
2018-04-22T05:32:21.034Z,5344.00
2018-04-22T05:33:21.278Z,5444.00
2018-04-22T05:34:21.523Z,5540.00
2018-04-22T05:35:21.768Z,5636.00
2018-04-22T05:36:22.009Z,5724.00
2018-04-22T05:37:22.253Z,5816.00
2018-04-22T05:38:22.497Z,5908.00
2018-04-22T05:39:22.737Z,6004.00
2018-04-22T05:40:22.980Z,6112.00
2018-04-22T05:41:23.223Z,6224.00
2018-04-22T05:42:23.466Z,6332.00
2018-04-22T05:43:23.709Z,6428.00
2018-04-22T05:44:23.952Z,6520.00
2018-04-22T05:45:24.209Z,6604.00
2018-04-22T05:46:24.433Z,6692.00
2018-04-22T05:47:24.675Z,6784.00
2018-04-22T05:48:24.917Z,6876.00
2018-04-22T05:49:25.163Z,6964.00
2018-04-22T05:50:25.400Z,7048.00
2018-04-22T05:51:25.646Z,7144.00
2018-04-22T05:52:25.888Z,7224.00
2018-04-22T05:53:26.134Z,7312.00
2018-04-22T05:54:26.373Z,7412.00
2018-04-22T05:55:26.617Z,7516.00
2018-04-22T05:56:26.859Z,7588.00
2018-04-22T05:57:27.102Z,7660.00
2018-04-22T05:58:27.345Z,7744.00
2018-04-22T05:59:27.590Z,7820.00
2018-04-22T06:00:27.838Z,7908.00
2018-04-22T06:01:28.073Z,8012.00
2018-04-22T06:02:28.319Z,8124.00
2018-04-22T06:03:28.565Z,8248.00
2018-04-22T06:04:28.810Z,8380.00
2018-04-22T06:05:29.053Z,8516.00
2018-04-22T06:06:29.296Z,8644.00
2018-04-22T06:07:29.540Z,8764.00
2018-04-22T06:08:29.785Z,8880.00
2018-04-22T06:09:30.032Z,9004.00
2018-04-22T06:10:30.273Z,9164.00
2018-04-22T06:11:30.517Z,9536.00
2018-04-22T06:12:30.763Z,9720.00
2018-04-22T06:13:31.005Z,9884.00
2018-04-22T06:14:31.252Z,10048.00
2018-04-22T06:15:31.494Z,10256.00
2018-04-22T06:16:31.739Z,10448.00
2018-04-22T06:17:31.984Z,10588.00
2018-04-22T06:18:32.225Z,10800.00
2018-04-22T06:19:32.468Z,10920.00
2018-04-22T06:20:32.719Z,10900.00
2018-04-22T06:21:33.347Z,10844.00
2018-04-22T06:22:33.210Z,10996.00
2018-04-22T06:23:33.456Z,11528.00
2018-04-22T06:24:33.698Z,11648.00
2018-04-22T06:25:33.947Z,11700.00
2018-04-22T06:26:34.186Z,11772.00
2018-04-22T06:27:34.433Z,11764.00
2018-04-22T06:28:34.677Z,11708.00
2018-04-22T06:29:34.923Z,11688.00
2018-04-22T06:30:35.168Z,11556.00
2018-04-22T06:31:35.411Z,11360.00
2018-04-22T06:32:35.658Z,11516.00
2018-04-22T06:33:35.908Z,11420.00
2018-04-22T06:34:36.148Z,11500.00
2018-04-22T06:35:36.392Z,11516.00
2018-04-22T06:36:36.637Z,11304.00
2018-04-22T06:37:36.882Z,11776.00
2018-04-22T06:38:37.128Z,11524.00
2018-04-22T06:39:37.371Z,12368.00
2018-04-22T06:40:37.605Z,12260.00
2018-04-22T06:41:37.853Z,11844.00
2018-04-22T06:42:38.098Z,12236.00
2018-04-22T06:43:38.343Z,11932.00
2018-04-22T06:44:38.589Z,12928.00
2018-04-22T06:45:38.836Z,13408.00
2018-04-22T06:46:39.082Z,14032.00
2018-04-22T06:47:39.327Z,14184.00
2018-04-22T06:48:39.574Z,14728.00
2018-04-22T06:49:39.825Z,14640.00
2018-04-22T06:50:40.071Z,14280.00
2018-04-22T06:51:40.314Z,14428.00
2018-04-22T06:52:40.561Z,14088.00
2018-04-22T06:53:40.807Z,13628.00
2018-04-22T06:54:41.054Z,13636.00
2018-04-22T06:55:41.302Z,13728.00
2018-04-22T06:56:41.551Z,13644.00
2018-04-22T06:57:41.802Z,13856.00
2018-04-22T06:58:42.052Z,14092.00
2018-04-22T06:59:42.295Z,14288.00
2018-04-22T07:00:42.545Z,14352.00
2018-04-22T07:01:42.793Z,14384.00
2018-04-22T07:02:43.042Z,14452.00
2018-04-22T07:03:43.298Z,14612.00
2018-04-22T07:04:43.540Z,14772.00
2018-04-22T07:05:43.791Z,14940.00
2018-04-22T07:06:44.041Z,15140.00
2018-04-22T07:07:44.291Z,15280.00
2018-04-22T07:08:44.545Z,15384.00
2018-04-22T07:09:44.793Z,15540.00
2018-04-22T07:10:45.044Z,15608.00
2018-04-22T07:11:45.295Z,15688.00
2018-04-22T07:12:45.545Z,15728.00
2018-04-22T07:13:45.797Z,15760.00
2018-04-22T07:14:46.049Z,15832.00
2018-04-22T07:15:46.300Z,15880.00
2018-04-22T07:16:46.553Z,15828.00
2018-04-22T07:17:46.803Z,15980.00
2018-04-22T07:18:47.056Z,16176.00
2018-04-22T07:19:47.310Z,16276.00
2018-04-22T07:20:47.563Z,16368.00
2018-04-22T07:21:47.816Z,16488.00
2018-04-22T07:22:48.069Z,16624.00
2018-04-22T07:23:48.321Z,16748.00
2018-04-22T07:24:48.573Z,16876.00
2018-04-22T07:25:48.826Z,17108.00
2018-04-22T07:26:49.079Z,17352.00
2018-04-22T07:27:49.333Z,18016.00
2018-04-22T07:28:49.586Z,18560.00
2018-04-22T07:29:49.837Z,19232.00
2018-04-22T07:30:51.604Z,19808.00
2018-04-22T07:31:50.450Z,20352.00
2018-04-22T07:32:50.703Z,21024.00
2018-04-22T07:33:50.960Z,21536.00
2018-04-22T07:34:51.210Z,22016.00
2018-04-22T07:35:51.465Z,22112.00
2018-04-22T07:36:51.718Z,22208.00
2018-04-22T07:37:51.972Z,22848.00
2018-04-22T07:38:52.258Z,24096.00
2018-04-22T07:39:52.508Z,24608.00
2018-04-22T07:40:52.761Z,25024.00
2018-04-22T07:41:53.018Z,24864.00
2018-04-22T07:42:53.270Z,24832.00
2018-04-22T07:43:53.524Z,25632.00
2018-04-22T07:44:53.779Z,27040.00
2018-04-22T07:45:54.033Z,29280.00
2018-04-22T07:46:54.290Z,31488.00
2018-04-22T07:47:54.546Z,33152.00
2018-04-22T07:48:54.799Z,35232.00
2018-04-22T07:49:55.055Z,36544.00
2018-04-22T07:50:55.308Z,34048.00
2018-04-22T07:51:55.561Z,30592.00
2018-04-22T07:52:55.817Z,27136.00
2018-04-22T07:53:56.070Z,25568.00
2018-04-22T07:54:56.326Z,24960.00
2018-04-22T07:55:56.580Z,24224.00
2018-04-22T07:56:56.840Z,24736.00
2018-04-22T07:57:57.093Z,24704.00
2018-04-22T07:58:57.349Z,24896.00
2018-04-22T07:59:57.607Z,25280.00
2018-04-22T08:00:57.859Z,25376.00
2018-04-22T08:01:58.117Z,33696.00
2018-04-22T08:02:58.374Z,26208.00
2018-04-22T08:03:58.644Z,24960.00
2018-04-22T08:04:58.882Z,35968.00
2018-04-22T08:05:59.139Z,36736.00
2018-04-22T08:06:59.399Z,44576.00
2018-04-22T08:07:59.703Z,37664.00
2018-04-22T08:08:59.895Z,40480.00
2018-04-22T08:10:00.152Z,36800.00
2018-04-22T08:11:00.408Z,27136.00
2018-04-22T08:12:00.669Z,48704.00
2018-04-22T08:13:00.925Z,39136.00
2018-04-22T08:14:01.183Z,34752.00
2018-04-22T08:15:01.439Z,38368.00
2018-04-22T08:16:01.696Z,35872.00
2018-04-22T08:17:01.951Z,35776.00
2018-04-22T08:18:02.207Z,40672.00
2018-04-22T08:19:02.461Z,36832.00
2018-04-22T08:20:02.717Z,32288.00
2018-04-22T08:21:02.975Z,21504.00
2018-04-22T08:22:03.233Z,21472.00
2018-04-22T08:23:03.488Z,20544.00
2018-04-22T08:24:03.745Z,22144.00
2018-04-22T08:25:04.003Z,22400.00
2018-04-22T08:26:04.256Z,23360.00
2018-04-22T08:27:04.513Z,31712.00
2018-04-22T08:28:04.775Z,42336.00
2018-04-22T08:29:05.028Z,23392.00
2018-04-22T08:30:05.392Z,37760.00
2018-04-22T08:31:05.694Z,18976.00
2018-04-22T08:32:05.957Z,19392.00
2018-04-22T08:33:06.225Z,20480.00
2018-04-22T08:34:06.461Z,22368.00
2018-04-22T08:35:06.716Z,24896.00
2018-04-22T08:36:06.969Z,43936.00
2018-04-22T08:37:07.219Z,49920.00
2018-04-22T08:38:07.472Z,49600.00
2018-04-22T08:39:07.719Z,48672.00
2018-04-22T08:40:07.975Z,48384.00
2018-04-22T08:41:08.229Z,51392.00
2018-04-22T08:42:08.481Z,54176.00
2018-04-22T08:43:08.735Z,52704.00
2018-04-22T08:44:08.991Z,52320.00
2018-04-22T08:45:09.247Z,53152.00
2018-04-22T08:46:09.502Z,52896.00
2018-04-22T08:47:09.759Z,53088.00
2018-04-22T08:48:10.010Z,53472.00
2018-04-22T08:49:10.266Z,52800.00
2018-04-22T08:50:10.525Z,53632.00
2018-04-22T08:51:10.776Z,53216.00
2018-04-22T08:52:11.034Z,50272.00
2018-04-22T08:53:11.292Z,50368.00
2018-04-22T08:54:11.545Z,50080.00
2018-04-22T08:55:11.800Z,52384.00
2018-04-22T08:56:12.066Z,55328.00
2018-04-22T08:57:12.314Z,57344.00
2018-04-22T08:58:12.570Z,56800.00
2018-04-22T08:59:12.825Z,54720.00
2018-04-22T09:00:13.081Z,52320.00
2018-04-22T09:01:13.345Z,54432.00
2018-04-22T09:02:13.585Z,56256.00
2018-04-22T09:03:13.841Z,55872.00
2018-04-22T09:04:14.099Z,56512.00
2018-04-22T09:05:14.362Z,59328.00
2018-04-22T09:06:14.619Z,59776.00
2018-04-22T09:07:14.873Z,60288.00
2018-04-22T09:08:15.130Z,61600.00
2018-04-22T09:09:15.389Z,62400.00
2018-04-22T09:10:15.645Z,62048.00
2018-04-22T09:11:15.902Z,63776.00
2018-04-22T09:12:16.159Z,65120.00
2018-04-22T09:13:16.423Z,62688.00
2018-04-22T09:14:16.673Z,59520.00
2018-04-22T09:15:16.932Z,61024.00
2018-04-22T09:16:17.191Z,59840.00
2018-04-22T09:17:17.452Z,60512.00
2018-04-22T09:18:17.705Z,61728.00
2018-04-22T09:19:17.961Z,65792.00
2018-04-22T09:20:18.216Z,66688.00
2018-04-22T09:21:18.477Z,66240.00
2018-04-22T09:22:18.737Z,67072.00
2018-04-22T09:23:18.993Z,68128.00
2018-04-22T09:24:19.250Z,68768.00
2018-04-22T09:25:19.507Z,68256.00
2018-04-22T09:26:19.764Z,66976.00
2018-04-22T09:27:20.022Z,71136.00
2018-04-22T09:28:20.281Z,69888.00
2018-04-22T09:29:20.539Z,71520.00
2018-04-22T09:30:20.800Z,74816.00
2018-04-22T09:31:21.054Z,74080.00
2018-04-22T09:32:21.312Z,71808.00
2018-04-22T09:33:21.573Z,66464.00
2018-04-22T09:34:21.844Z,69824.00
2018-04-22T09:35:22.087Z,72000.00
2018-04-22T09:36:22.383Z,72160.00
2018-04-22T09:37:22.672Z,72096.00
2018-04-22T09:38:22.985Z,73056.00
2018-04-22T09:39:23.192Z,74496.00
2018-04-22T09:40:23.447Z,73248.00
2018-04-22T09:41:23.704Z,74784.00
2018-04-22T09:42:23.964Z,72352.00
2018-04-22T09:43:24.222Z,73440.00
2018-04-22T09:44:24.480Z,73856.00
2018-04-22T09:45:24.738Z,73056.00
2018-04-22T09:46:25.014Z,75264.00
2018-04-22T09:47:25.264Z,73248.00
2018-04-22T09:48:25.520Z,78464.00
2018-04-22T09:49:25.803Z,75424.00
2018-04-22T09:50:26.071Z,73408.00
2018-04-22T09:51:26.398Z,74432.00
2018-04-22T09:52:26.660Z,75872.00
2018-04-22T09:53:27.020Z,76256.00
2018-04-22T09:54:27.226Z,77568.00
2018-04-22T09:55:27.488Z,75968.00
2018-04-22T09:56:27.743Z,61568.00
2018-04-22T09:57:28.001Z,80064.00
2018-04-22T09:58:28.260Z,66656.00
2018-04-22T09:59:28.516Z,75648.00
2018-04-22T10:00:28.778Z,73280.00
2018-04-22T10:01:29.033Z,75168.00
2018-04-22T10:02:29.289Z,80928.00
2018-04-22T10:03:29.547Z,74208.00
2018-04-22T10:04:29.813Z,75168.00
2018-04-22T10:05:30.065Z,78176.00
2018-04-22T10:06:30.323Z,79648.00
2018-04-22T10:07:30.578Z,76992.00
2018-04-22T10:08:30.835Z,79456.00
2018-04-22T10:09:31.094Z,83072.00
2018-04-22T10:10:31.350Z,82240.00
2018-04-22T10:11:31.610Z,78720.00
2018-04-22T10:12:31.866Z,79456.00
2018-04-22T10:13:32.128Z,81184.00
2018-04-22T10:14:32.384Z,83232.00
2018-04-22T10:15:32.639Z,81696.00
2018-04-22T10:16:32.944Z,80928.00
2018-04-22T10:17:33.153Z,81152.00
2018-04-22T10:18:33.411Z,80128.00
2018-04-22T10:19:33.669Z,76384.00
2018-04-22T10:20:33.932Z,76256.00
2018-04-22T10:21:34.183Z,77504.00
2018-04-22T10:22:34.443Z,78656.00
2018-04-22T10:23:34.702Z,80704.00
2018-04-22T10:24:34.960Z,80032.00
2018-04-22T10:25:35.218Z,77728.00
2018-04-22T10:26:35.479Z,79136.00
2018-04-22T10:27:35.735Z,83456.00
2018-04-22T10:28:35.993Z,83584.00
2018-04-22T10:29:36.251Z,79584.00
2018-04-22T10:30:36.507Z,80608.00
2018-04-22T10:31:36.763Z,82144.00
2018-04-22T10:32:37.022Z,83488.00
2018-04-22T10:33:37.277Z,83456.00
2018-04-22T10:34:37.578Z,79936.00
2018-04-22T10:35:37.796Z,81984.00
2018-04-22T10:36:38.052Z,84032.00
2018-04-22T10:37:38.330Z,84224.00
2018-04-22T10:38:38.569Z,84192.00
2018-04-22T10:39:38.826Z,85024.00
2018-04-22T10:40:39.085Z,84096.00
2018-04-22T10:41:39.346Z,82880.00
2018-04-22T10:42:39.600Z,82592.00
2018-04-22T10:43:39.859Z,83584.00
2018-04-22T10:44:40.118Z,86272.00
2018-04-22T10:45:40.378Z,87488.00
2018-04-22T10:46:40.689Z,87904.00
2018-04-22T10:47:40.898Z,87552.00
2018-04-22T10:48:41.156Z,87904.00
2018-04-22T10:49:41.424Z,87808.00
2018-04-22T10:50:41.673Z,86848.00
2018-04-22T10:51:41.932Z,85056.00
2018-04-22T10:52:42.189Z,84544.00
2018-04-22T10:53:42.446Z,83968.00
2018-04-22T10:54:42.701Z,84288.00
2018-04-22T10:55:42.963Z,86624.00
2018-04-22T10:56:43.216Z,88192.00
2018-04-22T10:57:43.476Z,87552.00
2018-04-22T10:58:43.732Z,86144.00
2018-04-22T10:59:43.989Z,86624.00
2018-04-22T11:00:44.247Z,86112.00
2018-04-22T11:01:44.511Z,87456.00
2018-04-22T11:02:44.764Z,87392.00
2018-04-22T11:03:45.085Z,86304.00
2018-04-22T11:04:45.349Z,85888.00
2018-04-22T11:05:45.610Z,88768.00
2018-04-22T11:06:45.863Z,88768.00
2018-04-22T11:07:46.119Z,87360.00
2018-04-22T11:08:46.379Z,86048.00
2018-04-22T11:09:46.634Z,89824.00
2018-04-22T11:10:46.893Z,94144.00
2018-04-22T11:11:47.156Z,93344.00
2018-04-22T11:12:47.409Z,93056.00
2018-04-22T11:13:47.666Z,95360.00
2018-04-22T11:14:47.924Z,97952.00
2018-04-22T11:15:48.181Z,94784.00
2018-04-22T11:16:48.441Z,87648.00
2018-04-22T11:17:48.694Z,86336.00
2018-04-22T11:18:48.953Z,92384.00
2018-04-22T11:19:49.213Z,95616.00
2018-04-22T11:20:49.469Z,98112.00
2018-04-22T11:21:49.728Z,94912.00
2018-04-22T11:22:49.990Z,85312.00
2018-04-22T11:23:50.245Z,78592.00
2018-04-22T11:24:50.501Z,80384.00
2018-04-22T11:25:50.758Z,67104.00
2018-04-22T11:26:51.016Z,67136.00
2018-04-22T11:27:51.273Z,64224.00
2018-04-22T11:28:51.532Z,59904.00
2018-04-22T11:29:51.790Z,87616.00
2018-04-22T11:30:52.051Z,95712.00
2018-04-22T11:31:52.304Z,99520.00
2018-04-22T11:32:52.567Z,97472.00
2018-04-22T11:33:52.821Z,101472.00
2018-04-22T11:34:53.080Z,103136.00
2018-04-22T11:35:53.338Z,98176.00
2018-04-22T11:36:53.595Z,92160.00
2018-04-22T11:37:53.854Z,90784.00
2018-04-22T11:38:54.109Z,97344.00
2018-04-22T11:39:54.369Z,100800.00
2018-04-22T11:40:54.625Z,84640.00
2018-04-22T11:41:54.883Z,96192.00
2018-04-22T11:42:55.144Z,95904.00
2018-04-22T11:43:55.404Z,99520.00
2018-04-22T11:44:55.665Z,102016.00
2018-04-22T11:45:55.919Z,101952.00
2018-04-22T11:46:56.177Z,96576.00
2018-04-22T11:47:56.434Z,101600.00
2018-04-22T11:48:56.691Z,103392.00
2018-04-22T11:49:56.951Z,90752.00
2018-04-22T11:50:57.211Z,100448.00
2018-04-22T11:51:57.467Z,99392.00
2018-04-22T11:52:57.726Z,101472.00
2018-04-22T11:53:57.985Z,105728.00
2018-04-22T11:54:58.243Z,106688.00
2018-04-22T11:55:58.501Z,95328.00
2018-04-22T11:56:58.761Z,76896.00
2018-04-22T11:57:59.017Z,83424.00
2018-04-22T11:58:59.274Z,82848.00
2018-04-22T11:59:59.580Z,90112.00
2018-04-22T12:00:59.801Z,68320.00
2018-04-22T12:02:00.051Z,49760.00
2018-04-22T12:03:00.308Z,43104.00
2018-04-22T12:04:00.567Z,55136.00
2018-04-22T12:05:00.823Z,64800.00
2018-04-22T12:06:01.080Z,86400.00
2018-04-22T12:07:01.338Z,88736.00
2018-04-22T12:08:01.598Z,81280.00
2018-04-22T12:09:01.845Z,84768.00
2018-04-22T12:10:02.118Z,94304.00
2018-04-22T12:11:02.374Z,63072.00
2018-04-22T12:12:02.631Z,76480.00
2018-04-22T12:13:02.888Z,87456.00
2018-04-22T12:14:03.147Z,80288.00
2018-04-22T12:15:03.402Z,34528.00
2018-04-22T12:16:03.660Z,26048.00
2018-04-22T12:17:03.916Z,24576.00
2018-04-22T12:18:04.171Z,30400.00
2018-04-22T12:19:04.430Z,55616.00